createdAt,value
2023-06-19T00:02:14.438Z,84.41
2023-06-19T00:04:41.643Z,85.60
2023-06-19T00:07:08.670Z,84.72
2023-06-19T00:09:35.836Z,85.07
2023-06-19T00:12:03.420Z,86.01
2023-06-19T00:14:30.582Z,85.34
2023-06-19T00:16:57.715Z,86.03
2023-06-19T00:19:24.968Z,85.81
2023-06-19T00:21:52.090Z,84.96
2023-06-19T00:24:19.241Z,84.67
2023-06-19T00:26:46.523Z,84.50
2023-06-19T00:29:13.678Z,84.82
2023-06-19T00:31:40.873Z,86.16
2023-06-19T00:34:09.364Z,86.07
2023-06-19T00:36:41.966Z,86.16
2023-06-19T00:39:09.784Z,85.98
2023-06-19T00:41:37.466Z,86.13
2023-06-19T00:44:05.263Z,84.89
2023-06-19T00:46:33.000Z,86.09
2023-06-19T00:49:00.419Z,85.23
2023-06-19T00:51:27.613Z,84.88
2023-06-19T00:53:54.934Z,82.92
2023-06-19T00:56:22.187Z,85.29
2023-06-19T00:58:53.035Z,86.40
2023-06-19T01:01:22.266Z,86.45
2023-06-19T01:03:49.592Z,85.39
2023-06-19T01:06:29.298Z,85.71
2023-06-19T01:09:07.034Z,87.04
2023-06-19T01:11:45.822Z,86.86
2023-06-19T01:14:22.613Z,87.18
2023-06-19T01:16:50.398Z,87.89
2023-06-19T01:19:21.581Z,85.34
2023-06-19T01:21:50.740Z,84.39
2023-06-19T01:24:17.848Z,87.00
2023-06-19T01:26:48.605Z,83.70
2023-06-19T01:29:19.215Z,86.71
2023-06-19T01:32:16.638Z,84.70
2023-06-19T01:34:44.221Z,87.24
2023-06-19T01:37:11.981Z,84.52
2023-06-19T01:39:40.306Z,85.50
2023-06-19T01:42:10.596Z,83.89
2023-06-19T01:44:38.011Z,84.45
2023-06-19T01:47:12.907Z,83.73
2023-06-19T01:49:42.417Z,86.96
2023-06-19T01:52:10.055Z,87.37
2023-06-19T01:54:37.165Z,86.40
2023-06-19T01:57:04.585Z,88.18
2023-06-19T01:59:31.798Z,84.50
2023-06-19T02:01:59.031Z,84.70
2023-06-19T02:04:26.208Z,87.07
2023-06-19T02:06:53.328Z,87.01
2023-06-19T02:09:22.391Z,85.28
2023-06-19T02:11:49.440Z,86.61
2023-06-19T02:14:16.869Z,86.83
2023-06-19T02:16:44.833Z,87.13
2023-06-19T02:19:12.400Z,86.59
2023-06-19T02:21:40.324Z,86.29
2023-06-19T02:24:07.582Z,84.14
2023-06-19T02:26:34.786Z,86.46
2023-06-19T02:29:01.933Z,85.23
2023-06-19T02:31:29.187Z,85.79
2023-06-19T02:33:56.431Z,85.17
2023-06-19T02:36:23.646Z,85.33
2023-06-19T02:38:50.867Z,87.13
2023-06-19T02:41:19.752Z,87.08
2023-06-19T02:43:50.860Z,84.58
2023-06-19T02:46:18.098Z,87.01
2023-06-19T02:48:45.322Z,88.08
2023-06-19T02:51:12.584Z,88.43
2023-06-19T02:53:39.813Z,86.66
2023-06-19T02:56:08.887Z,87.88
2023-06-19T02:58:35.993Z,87.24
2023-06-19T03:01:03.241Z,86.15
2023-06-19T03:03:30.995Z,86.66
2023-06-19T03:05:58.205Z,87.28
2023-06-19T03:08:25.391Z,86.67
2023-06-19T03:10:52.595Z,87.28
2023-06-19T03:13:20.712Z,86.39
2023-06-19T03:15:47.765Z,86.68
2023-06-19T03:18:15.191Z,86.24
2023-06-19T03:20:42.392Z,85.60
2023-06-19T03:23:09.593Z,84.77
2023-06-19T03:25:37.250Z,85.02
2023-06-19T03:28:05.769Z,85.61
2023-06-19T03:30:33.956Z,86.10
2023-06-19T03:33:01.156Z,85.89
2023-06-19T03:35:43.432Z,85.70
2023-06-19T03:38:18.901Z,85.69
2023-06-19T03:40:46.193Z,85.74
2023-06-19T03:43:13.896Z,85.41
2023-06-19T03:45:42.187Z,86.14
2023-06-19T03:48:09.320Z,86.20
2023-06-19T03:50:36.788Z,85.23
2023-06-19T03:53:04.592Z,85.13
2023-06-19T03:55:31.799Z,83.15
2023-06-19T03:57:59.026Z,85.92
2023-06-19T04:00:26.532Z,85.27
2023-06-19T04:02:54.135Z,84.65
2023-06-19T04:05:21.618Z,83.73
2023-06-19T04:07:49.778Z,85.49
2023-06-19T04:10:17.245Z,84.27
2023-06-19T04:12:46.493Z,82.35
2023-06-19T04:15:13.786Z,83.30
2023-06-19T04:17:41.201Z,84.47
2023-06-19T04:20:13.368Z,82.73
2023-06-19T04:22:41.791Z,84.10
2023-06-19T04:25:10.062Z,85.59
2023-06-19T04:27:37.214Z,83.49
2023-06-19T04:30:05.733Z,84.02
2023-06-19T04:32:33.241Z,83.84
2023-06-19T04:35:00.660Z,84.61
2023-06-19T04:37:27.930Z,84.67
2023-06-19T04:39:55.327Z,84.88
2023-06-19T04:42:22.586Z,85.22
2023-06-19T04:44:50.200Z,86.25
2023-06-19T04:47:26.766Z,85.24
2023-06-19T04:49:58.198Z,85.59
2023-06-19T04:52:25.285Z,86.24
2023-06-19T04:54:52.434Z,86.32
2023-06-19T04:57:19.608Z,86.37
2023-06-19T04:59:46.860Z,85.05
2023-06-19T05:02:14.073Z,84.45
2023-06-19T05:04:44.284Z,85.26
2023-06-19T05:07:14.011Z,85.38
2023-06-19T05:09:41.084Z,85.22
2023-06-19T05:12:08.567Z,84.52
2023-06-19T05:14:35.609Z,83.90
2023-06-19T05:17:02.760Z,85.40
2023-06-19T05:19:29.937Z,85.65
2023-06-19T05:21:57.174Z,84.09
2023-06-19T05:24:25.209Z,82.70
2023-06-19T05:26:52.408Z,83.66
2023-06-19T05:29:19.537Z,84.15
2023-06-19T05:31:46.582Z,84.54
2023-06-19T05:34:13.698Z,83.27
2023-06-19T05:36:40.818Z,81.39
2023-06-19T05:39:08.086Z,81.75
2023-06-19T05:41:35.326Z,81.18
2023-06-19T05:44:02.916Z,81.72
2023-06-19T05:46:30.024Z,81.94
2023-06-19T05:48:57.311Z,81.73
2023-06-19T05:51:24.433Z,80.22
2023-06-19T05:53:53.354Z,80.44
2023-06-19T05:56:20.603Z,81.10
2023-06-19T05:58:47.679Z,80.62
2023-06-19T06:01:15.139Z,76.65
2023-06-19T06:03:42.230Z,73.66
2023-06-19T06:06:09.471Z,75.30
2023-06-19T06:08:37.159Z,72.56
2023-06-19T06:11:04.422Z,72.64
2023-06-19T06:13:31.549Z,73.81
2023-06-19T06:15:58.688Z,75.36
2023-06-19T06:18:25.870Z,72.79
2023-06-19T06:20:53.052Z,72.93
2023-06-19T06:23:20.138Z,72.64
2023-06-19T06:25:47.297Z,71.81
2023-06-19T06:28:14.435Z,73.20
2023-06-19T06:30:41.709Z,74.18
2023-06-19T06:33:09.001Z,73.66
2023-06-19T06:35:37.104Z,71.46
2023-06-19T06:38:04.167Z,70.93
2023-06-19T06:40:31.343Z,71.50
2023-06-19T06:42:58.588Z,70.72
2023-06-19T06:45:27.928Z,69.73
2023-06-19T06:47:55.518Z,68.90
2023-06-19T06:50:22.955Z,69.42
2023-06-19T06:52:50.384Z,69.92
2023-06-19T06:55:17.598Z,67.79
2023-06-19T06:57:44.655Z,68.41
2023-06-19T07:00:12.669Z,67.31
2023-06-19T07:02:41.482Z,68.38
2023-06-19T07:05:10.191Z,65.38
2023-06-19T07:07:37.667Z,65.63
2023-06-19T07:10:05.290Z,65.67
2023-06-19T07:12:32.440Z,65.55
2023-06-19T07:14:59.574Z,64.90
2023-06-19T07:17:26.837Z,62.50
2023-06-19T07:19:53.978Z,62.07
2023-06-19T07:22:21.110Z,63.94
2023-06-19T07:24:48.383Z,63.60
2023-06-19T07:27:15.464Z,64.63
2023-06-19T07:29:42.577Z,63.01
2023-06-19T07:32:09.791Z,61.91
2023-06-19T07:34:37.064Z,62.41
2023-06-19T07:37:04.527Z,60.23
2023-06-19T07:39:32.461Z,58.22
2023-06-19T07:41:59.660Z,57.50
2023-06-19T07:44:26.752Z,56.91
2023-06-19T07:46:53.841Z,55.42
2023-06-19T07:49:20.933Z,56.90
2023-06-19T07:51:48.124Z,55.95
2023-06-19T07:54:15.276Z,53.67
2023-06-19T07:56:42.714Z,54.24
2023-06-19T07:59:09.888Z,52.42
2023-06-19T08:01:37.082Z,53.57
2023-06-19T08:04:04.354Z,54.78
2023-06-19T08:06:31.462Z,53.50
2023-06-19T08:08:58.622Z,53.67
2023-06-19T08:11:25.717Z,54.16
2023-06-19T08:13:53.138Z,52.56
2023-06-19T08:16:20.543Z,53.63
2023-06-19T08:18:47.878Z,52.60
2023-06-19T08:21:15.213Z,52.93
2023-06-19T08:23:44.988Z,53.47
2023-06-19T08:26:12.432Z,52.48
2023-06-19T08:28:41.519Z,52.07
2023-06-19T08:31:09.213Z,49.48
2023-06-19T08:33:39.184Z,47.82
2023-06-19T08:36:06.631Z,48.72
2023-06-19T08:38:33.839Z,48.34
2023-06-19T08:41:01.093Z,49.03
2023-06-19T08:43:28.735Z,46.57
2023-06-19T08:46:11.211Z,46.84
2023-06-19T08:48:39.043Z,44.05
2023-06-19T08:51:06.894Z,43.75
2023-06-19T08:53:36.223Z,44.00
2023-06-19T08:56:05.588Z,44.28
2023-06-19T08:58:32.840Z,45.38
2023-06-19T09:01:00.581Z,45.50
2023-06-19T09:03:27.850Z,45.21
2023-06-19T09:05:55.291Z,46.24
2023-06-19T09:08:24.054Z,42.81
2023-06-19T09:10:57.840Z,44.00
2023-06-19T09:13:25.047Z,43.76
2023-06-19T09:16:03.821Z,41.62
2023-06-19T09:18:33.009Z,42.52
2023-06-19T09:21:00.409Z,42.47
2023-06-19T09:23:27.623Z,42.71
2023-06-19T09:25:59.461Z,41.55
2023-06-19T09:28:29.465Z,42.04
2023-06-19T09:31:04.076Z,43.19
2023-06-19T09:33:33.566Z,41.84
2023-06-19T09:36:03.164Z,41.37
2023-06-19T09:38:32.951Z,41.13
2023-06-19T09:41:03.613Z,41.47
2023-06-19T09:43:51.235Z,40.53
2023-06-19T09:46:20.885Z,41.26
2023-06-19T09:48:52.360Z,40.81
2023-06-19T09:51:22.462Z,41.56
2023-06-19T09:53:54.038Z,41.57
2023-06-19T09:56:25.621Z,39.87
2023-06-19T09:58:57.385Z,41.22
2023-06-19T10:01:25.614Z,39.94
2023-06-19T10:04:04.599Z,40.20
2023-06-19T10:06:33.135Z,40.25
2023-06-19T10:09:11.290Z,39.82
2023-06-19T10:11:54.192Z,39.64
2023-06-19T10:14:22.325Z,39.48
2023-06-19T10:16:50.365Z,39.53
2023-06-19T10:19:19.282Z,38.07
2023-06-19T10:21:51.385Z,38.80
2023-06-19T10:24:21.293Z,39.31
2023-06-19T10:27:02.833Z,39.81
2023-06-19T10:29:41.525Z,39.64
2023-06-19T10:32:11.393Z,38.71
2023-06-19T10:34:38.589Z,39.39
2023-06-19T10:37:06.194Z,38.59
2023-06-19T10:39:33.676Z,38.71
2023-06-19T10:42:00.825Z,39.58
2023-06-19T10:44:27.881Z,39.67
2023-06-19T10:46:55.053Z,39.20
2023-06-19T10:49:22.407Z,38.66
2023-06-19T10:51:50.015Z,38.49
2023-06-19T10:54:17.372Z,38.91
2023-06-19T10:56:44.728Z,38.28
2023-06-19T10:59:15.202Z,38.59
2023-06-19T11:01:45.831Z,38.30
2023-06-19T11:04:16.130Z,37.55
2023-06-19T11:06:46.555Z,37.07
2023-06-19T11:09:14.622Z,37.50
2023-06-19T11:11:49.528Z,36.90
2023-06-19T11:14:18.209Z,37.18
2023-06-19T11:16:49.411Z,37.48
2023-06-19T11:19:21.691Z,36.72
2023-06-19T11:21:52.088Z,37.62
2023-06-19T11:24:21.592Z,38.19
2023-06-19T11:26:51.271Z,38.62
2023-06-19T11:29:23.820Z,37.71
2023-06-19T11:31:51.767Z,38.09
2023-06-19T11:34:23.384Z,37.67
2023-06-19T11:36:52.219Z,37.96
2023-06-19T11:39:20.616Z,38.60
2023-06-19T11:41:48.417Z,38.17
2023-06-19T11:44:16.238Z,37.00
2023-06-19T11:46:44.067Z,37.95
2023-06-19T11:49:19.175Z,37.23
2023-06-19T11:51:48.100Z,37.79
2023-06-19T11:54:16.356Z,37.93
2023-06-19T11:56:43.547Z,38.26
2023-06-19T11:59:10.884Z,38.12
2023-06-19T12:01:38.599Z,38.17
2023-06-19T12:04:06.285Z,38.08
2023-06-19T12:06:34.010Z,39.56
2023-06-19T12:09:01.162Z,38.54
2023-06-19T12:11:28.436Z,38.75
2023-06-19T12:13:57.118Z,38.45
2023-06-19T12:16:24.356Z,38.23
2023-06-19T12:18:51.497Z,38.93
2023-06-19T12:21:34.178Z,38.48
2023-06-19T12:24:05.615Z,38.50
2023-06-19T12:26:37.667Z,38.07
2023-06-19T12:29:05.829Z,37.62
2023-06-19T12:31:33.626Z,38.57
2023-06-19T12:34:08.133Z,38.61
2023-06-19T12:36:38.118Z,38.51
2023-06-19T12:39:10.471Z,38.75
2023-06-19T12:41:37.992Z,38.44
2023-06-19T12:44:05.202Z,39.72
2023-06-19T12:46:33.673Z,39.30
2023-06-19T12:49:01.243Z,39.49
2023-06-19T12:51:28.377Z,38.44
2023-06-19T12:53:55.623Z,38.52
2023-06-19T12:56:22.955Z,39.11
2023-06-19T12:58:50.209Z,39.79
2023-06-19T13:01:17.829Z,38.13
2023-06-19T13:03:45.237Z,38.42
2023-06-19T13:06:12.624Z,38.61
2023-06-19T13:08:39.932Z,38.11
2023-06-19T13:11:07.049Z,38.17
2023-06-19T13:13:34.280Z,38.43
2023-06-19T13:16:01.579Z,37.85
2023-06-19T13:18:28.944Z,37.85
2023-06-19T13:20:56.467Z,38.89
2023-06-19T13:23:23.873Z,38.16
2023-06-19T13:25:51.292Z,37.07
2023-06-19T13:28:18.743Z,37.64
2023-06-19T13:30:45.937Z,37.28
2023-06-19T13:33:13.321Z,37.54
2023-06-19T13:35:40.420Z,37.16
2023-06-19T13:38:07.654Z,37.58
2023-06-19T13:40:34.965Z,37.57
2023-06-19T13:43:03.819Z,37.30
2023-06-19T13:45:31.990Z,36.82
2023-06-19T13:47:59.409Z,37.24
2023-06-19T13:50:26.754Z,37.72
2023-06-19T13:52:55.770Z,37.06
2023-06-19T13:55:24.208Z,37.77
2023-06-19T13:57:51.418Z,37.23
2023-06-19T14:00:19.650Z,37.57
2023-06-19T14:02:46.991Z,37.38
2023-06-19T14:05:17.009Z,38.52
2023-06-19T14:07:45.163Z,38.54
2023-06-19T14:10:12.329Z,37.56
2023-06-19T14:12:39.569Z,37.49
2023-06-19T14:15:08.591Z,37.87
2023-06-19T14:17:35.855Z,36.60
2023-06-19T14:20:05.623Z,36.73
2023-06-19T14:22:33.043Z,37.51
2023-06-19T14:25:03.046Z,37.26
2023-06-19T14:27:31.175Z,36.58
2023-06-19T14:29:58.569Z,37.02
2023-06-19T14:32:25.840Z,36.83
2023-06-19T14:34:53.267Z,36.63
2023-06-19T14:37:20.545Z,36.91
2023-06-19T14:39:48.025Z,36.68
2023-06-19T14:42:15.258Z,37.04
2023-06-19T14:44:42.411Z,36.98
2023-06-19T14:47:09.512Z,36.60
2023-06-19T14:49:36.652Z,36.60
2023-06-19T14:52:04.052Z,36.90
2023-06-19T14:54:31.174Z,36.92
2023-06-19T14:56:58.362Z,37.41
2023-06-19T14:59:25.927Z,36.96
2023-06-19T15:01:53.058Z,37.57
2023-06-19T15:04:20.457Z,37.02
2023-06-19T15:06:47.660Z,36.94
2023-06-19T15:09:14.972Z,37.65
2023-06-19T15:11:42.102Z,37.62
2023-06-19T15:14:09.672Z,37.40
2023-06-19T15:16:38.060Z,37.75
2023-06-19T15:19:05.737Z,37.31
2023-06-19T15:21:32.993Z,37.84
2023-06-19T15:24:00.227Z,38.00
2023-06-19T15:26:27.509Z,37.59
2023-06-19T15:28:54.933Z,37.67
2023-06-19T15:31:23.969Z,37.54
2023-06-19T15:33:51.766Z,37.36
2023-06-19T15:36:19.203Z,37.89
2023-06-19T15:38:46.743Z,37.96
2023-06-19T15:41:14.377Z,38.34
2023-06-19T15:44:08.478Z,38.63
2023-06-19T15:46:36.632Z,38.00
2023-06-19T15:49:05.677Z,38.13
2023-06-19T15:51:33.940Z,38.71
2023-06-19T15:54:02.807Z,38.05
2023-06-19T15:56:31.185Z,38.43
2023-06-19T15:59:02.931Z,38.55
2023-06-19T16:01:36.254Z,38.59
2023-06-19T16:04:09.913Z,39.56
2023-06-19T16:06:38.575Z,39.78
2023-06-19T16:09:08.238Z,40.44
2023-06-19T16:11:40.160Z,40.02
2023-06-19T16:14:12.712Z,39.91
2023-06-19T16:16:43.459Z,39.75
2023-06-19T16:19:10.817Z,40.35
2023-06-19T16:21:39.395Z,40.42
2023-06-19T16:24:07.603Z,40.94
2023-06-19T16:26:35.700Z,41.19
2023-06-19T16:29:04.522Z,41.02
2023-06-19T16:31:42.066Z,41.97
2023-06-19T16:34:10.072Z,42.46
2023-06-19T16:36:38.337Z,42.70
2023-06-19T16:39:07.296Z,42.24
2023-06-19T16:41:35.020Z,43.06
2023-06-19T16:44:03.610Z,43.28
2023-06-19T16:46:33.739Z,43.31
2023-06-19T16:49:14.523Z,43.20
2023-06-19T16:51:50.805Z,43.85
2023-06-19T16:54:20.154Z,43.98
2023-06-19T16:56:47.979Z,43.50
2023-06-19T16:59:18.680Z,43.87
2023-06-19T17:01:51.712Z,43.61
2023-06-19T17:04:19.744Z,43.07
2023-06-19T17:06:47.818Z,43.65
2023-06-19T17:09:15.280Z,43.33
2023-06-19T17:11:43.043Z,43.92
2023-06-19T17:14:10.256Z,44.07
2023-06-19T17:16:37.474Z,44.26
2023-06-19T17:19:06.744Z,44.41
2023-06-19T17:21:33.887Z,44.81
2023-06-19T17:24:01.204Z,44.95
2023-06-19T17:26:28.510Z,45.06
2023-06-19T17:28:55.675Z,45.20
2023-06-19T17:31:22.883Z,45.68
2023-06-19T17:33:50.098Z,46.43
2023-06-19T17:36:17.148Z,45.97
2023-06-19T17:38:44.412Z,46.16
2023-06-19T17:41:11.887Z,46.83
2023-06-19T17:43:39.064Z,46.81
2023-06-19T17:46:06.230Z,46.88
2023-06-19T17:48:33.359Z,47.11
2023-06-19T17:51:00.469Z,47.60
2023-06-19T17:53:27.609Z,47.73
2023-06-19T17:55:54.764Z,47.94
2023-06-19T17:58:22.938Z,47.97
2023-06-19T18:00:50.145Z,47.48
2023-06-19T18:03:17.354Z,47.39
2023-06-19T18:05:44.530Z,47.96
2023-06-19T18:08:11.733Z,48.11
2023-06-19T18:10:39.084Z,48.35
2023-06-19T18:13:06.312Z,48.84
2023-06-19T18:15:33.477Z,49.24
2023-06-19T18:18:00.670Z,48.85
2023-06-19T18:20:28.220Z,49.56
2023-06-19T18:22:55.688Z,50.14
2023-06-19T18:25:22.943Z,50.79
2023-06-19T18:27:50.168Z,50.61
2023-06-19T18:30:17.459Z,51.74
2023-06-19T18:32:44.626Z,52.20
2023-06-19T18:35:12.003Z,51.64
2023-06-19T18:37:39.527Z,52.32
2023-06-19T18:40:07.402Z,53.19
2023-06-19T18:42:35.219Z,53.82
2023-06-19T18:45:02.394Z,54.45
2023-06-19T18:47:29.441Z,54.51
2023-06-19T18:49:56.609Z,54.38
2023-06-19T18:52:24.201Z,54.83
2023-06-19T18:54:51.321Z,54.79
2023-06-19T18:57:18.512Z,55.36
2023-06-19T18:59:45.648Z,54.99
2023-06-19T19:02:12.893Z,55.43
2023-06-19T19:04:43.065Z,56.61
2023-06-19T19:07:10.199Z,57.36
2023-06-19T19:09:37.407Z,57.75
2023-06-19T19:12:05.337Z,57.84
2023-06-19T19:14:32.503Z,58.17
2023-06-19T19:16:59.683Z,57.85
2023-06-19T19:19:28.516Z,58.01
2023-06-19T19:21:55.902Z,57.93
2023-06-19T19:24:24.113Z,58.44
2023-06-19T19:26:51.558Z,58.81
2023-06-19T19:29:18.900Z,59.37
2023-06-19T19:31:46.165Z,59.52
2023-06-19T19:34:20.134Z,60.14
2023-06-19T19:36:48.432Z,59.36
2023-06-19T19:39:15.769Z,59.61
2023-06-19T19:41:45.256Z,60.81
2023-06-19T19:44:12.589Z,61.43
2023-06-19T19:46:41.105Z,59.88
2023-06-19T19:49:08.566Z,60.79
2023-06-19T19:51:36.212Z,61.09
2023-06-19T19:54:03.472Z,61.44
2023-06-19T19:56:30.653Z,62.83
2023-06-19T19:58:57.761Z,62.14
2023-06-19T20:01:24.841Z,62.27
2023-06-19T20:03:52.103Z,61.84
2023-06-19T20:06:19.296Z,63.12
2023-06-19T20:08:46.509Z,62.85
2023-06-19T20:11:13.762Z,62.67
2023-06-19T20:13:40.958Z,63.42
2023-06-19T20:16:11.553Z,62.78
2023-06-19T20:18:39.755Z,62.41
2023-06-19T20:21:07.242Z,62.44
2023-06-19T20:23:34.391Z,62.27
2023-06-19T20:26:01.822Z,62.43
2023-06-19T20:28:28.874Z,62.23
2023-06-19T20:30:56.037Z,62.74
2023-06-19T20:33:23.434Z,62.87
2023-06-19T20:35:51.302Z,62.73
2023-06-19T20:38:21.320Z,62.39
2023-06-19T20:40:49.203Z,63.30
2023-06-19T20:43:16.702Z,63.05
2023-06-19T20:45:43.758Z,62.44
2023-06-19T20:48:11.084Z,62.34
2023-06-19T20:50:38.293Z,63.23
2023-06-19T20:53:05.372Z,63.37
2023-06-19T20:55:32.486Z,64.02
2023-06-19T20:58:05.785Z,63.64
2023-06-19T21:00:33.750Z,64.16
2023-06-19T21:03:04.226Z,64.36
2023-06-19T21:05:31.727Z,65.20
2023-06-19T21:07:58.969Z,65.36
2023-06-19T21:10:26.309Z,68.13
2023-06-19T21:12:53.671Z,68.55
2023-06-19T21:15:20.754Z,69.07
2023-06-19T21:17:47.985Z,69.35
2023-06-19T21:20:15.133Z,68.30
2023-06-19T21:22:42.358Z,67.88
2023-06-19T21:25:09.921Z,67.94
2023-06-19T21:27:37.135Z,68.29
2023-06-19T21:30:05.533Z,67.69
2023-06-19T21:32:32.759Z,67.73
2023-06-19T21:34:59.935Z,66.80
2023-06-19T21:37:26.990Z,67.33
2023-06-19T21:39:54.150Z,66.95
2023-06-19T21:42:21.330Z,66.24
2023-06-19T21:44:48.564Z,66.86
2023-06-19T21:47:15.644Z,66.37
2023-06-19T21:49:42.817Z,66.49
2023-06-19T21:52:10.074Z,66.18
2023-06-19T21:54:37.144Z,66.85
2023-06-19T21:57:04.369Z,66.77
2023-06-19T21:59:31.464Z,66.56
2023-06-19T22:01:58.575Z,67.00
2023-06-19T22:04:25.798Z,66.42
2023-06-19T22:06:52.891Z,66.29
2023-06-19T22:09:20.091Z,66.40
2023-06-19T22:11:47.236Z,66.19
2023-06-19T22:14:14.409Z,66.08
2023-06-19T22:16:41.634Z,66.08
2023-06-19T22:19:11.720Z,66.19
2023-06-19T22:21:42.747Z,66.29
2023-06-19T22:24:13.194Z,66.26
2023-06-19T22:26:40.404Z,66.40
2023-06-19T22:29:07.657Z,66.28
2023-06-19T22:31:34.937Z,66.40
2023-06-19T22:34:02.220Z,66.72
2023-06-19T22:36:29.446Z,67.32
2023-06-19T22:38:56.647Z,67.40
2023-06-19T22:41:24.039Z,67.48
2023-06-19T22:43:51.159Z,68.64
2023-06-19T22:46:18.445Z,68.59
2023-06-19T22:48:51.636Z,68.33
2023-06-19T22:51:18.936Z,68.15
2023-06-19T22:53:46.019Z,67.45
2023-06-19T22:56:13.464Z,68.24
2023-06-19T22:58:43.957Z,68.26
2023-06-19T23:01:11.588Z,67.79
2023-06-19T23:03:43.813Z,67.67
2023-06-19T23:06:11.755Z,67.64
2023-06-19T23:08:41.610Z,67.85
2023-06-19T23:11:09.574Z,67.77
2023-06-19T23:13:39.310Z,67.34
2023-06-19T23:16:09.382Z,67.43
2023-06-19T23:18:37.508Z,67.34
2023-06-19T23:21:04.726Z,67.15
2023-06-19T23:23:32.481Z,67.35
2023-06-19T23:26:01.620Z,67.39
2023-06-19T23:28:32.630Z,67.37
2023-06-19T23:31:00.503Z,67.47
2023-06-19T23:33:27.924Z,67.49
2023-06-19T23:35:57.707Z,67.73
2023-06-19T23:38:25.904Z,68.60
2023-06-19T23:40:55.223Z,68.80
2023-06-19T23:43:22.340Z,69.20
2023-06-19T23:45:52.266Z,69.21
2023-06-19T23:48:19.656Z,69.31
2023-06-19T23:50:46.816Z,69.50
2023-06-19T23:53:14.024Z,69.53
2023-06-19T23:55:41.196Z,69.95
2023-06-19T23:58:09.485Z,69.98
